createdAt,value
2018-04-27T00:01:05.820Z,100885
2018-04-27T00:03:34.005Z,100879
2018-04-27T00:06:02.328Z,100873
2018-04-27T00:08:30.429Z,100871
2018-04-27T00:10:58.636Z,100869
2018-04-27T00:13:26.867Z,100863
2018-04-27T00:15:55.161Z,100855
2018-04-27T00:18:23.579Z,100865
2018-04-27T00:20:51.701Z,100863
2018-04-27T00:23:20.070Z,100858
2018-04-27T00:25:48.191Z,100860
2018-04-27T00:28:16.375Z,100855
2018-04-27T00:30:44.507Z,100850
2018-04-27T00:33:12.621Z,100839
2018-04-27T00:35:40.987Z,100831
2018-04-27T00:38:09.416Z,100839
2018-04-27T00:40:37.811Z,100843
2018-04-27T00:43:06.176Z,100838
2018-04-27T00:45:34.857Z,100839
2018-04-27T00:48:03.108Z,100843
2018-04-27T00:50:31.249Z,100844
2018-04-27T00:53:11.239Z,100846
2018-04-27T00:55:39.377Z,100838
2018-04-27T00:58:07.820Z,100824
2018-04-27T01:00:36.141Z,100831
2018-04-27T01:03:04.384Z,100835
2018-04-27T01:05:32.768Z,100830
2018-04-27T01:08:00.960Z,100820
2018-04-27T01:10:29.270Z,100820
2018-04-27T01:12:57.368Z,100810
2018-04-27T01:15:25.610Z,100818
2018-04-27T01:17:53.898Z,100820
2018-04-27T01:20:22.179Z,100820
2018-04-27T01:22:50.309Z,100818
2018-04-27T01:25:18.440Z,100818
2018-04-27T01:27:46.999Z,100822
2018-04-27T01:30:15.393Z,100819
2018-04-27T01:32:43.492Z,100812
2018-04-27T01:35:11.876Z,100815
2018-04-27T01:37:40.057Z,100813
2018-04-27T01:40:08.148Z,100820
2018-04-27T01:42:36.319Z,100809
2018-04-27T01:45:04.469Z,100820
2018-04-27T01:47:32.810Z,100821
2018-04-27T01:50:00.909Z,100808
2018-04-27T01:52:29.402Z,100822
2018-04-27T01:54:57.504Z,100815
2018-04-27T01:57:25.644Z,100816
2018-04-27T01:59:53.759Z,100812
2018-04-27T02:02:21.893Z,100810
2018-04-27T02:04:50.226Z,100820
2018-04-27T02:07:18.370Z,100818
2018-04-27T02:09:46.784Z,100813
2018-04-27T02:12:15.154Z,100812
2018-04-27T02:14:43.512Z,100813
2018-04-27T02:17:11.927Z,100810
2018-04-27T02:19:40.297Z,100807
2018-04-27T02:22:08.406Z,100809
2018-04-27T02:24:36.611Z,100808
2018-04-27T02:27:04.758Z,100817
2018-04-27T02:29:33.081Z,100807
2018-04-27T02:32:01.508Z,100816
2018-04-27T02:34:29.606Z,100815
2018-04-27T02:36:57.919Z,100813
2018-04-27T02:39:26.095Z,100810
2018-04-27T02:41:54.254Z,100811
2018-04-27T02:44:22.370Z,100801
2018-04-27T02:46:50.572Z,100800
2018-04-27T02:49:18.729Z,100801
2018-04-27T02:51:46.839Z,100800
2018-04-27T02:54:15.108Z,100795
2018-04-27T02:56:43.496Z,100784
2018-04-27T02:59:11.909Z,100785
2018-04-27T03:01:40.030Z,100789
2018-04-27T03:04:08.283Z,100789
2018-04-27T03:06:36.658Z,100782
2018-04-27T03:09:05.682Z,100788
2018-04-27T03:11:34.031Z,100793
2018-04-27T03:14:02.130Z,100785
2018-04-27T03:16:30.460Z,100782
2018-04-27T03:18:58.610Z,100778
2018-04-27T03:21:26.986Z,100789
2018-04-27T03:23:55.214Z,100780
2018-04-27T03:26:23.428Z,100784
2018-04-27T03:28:51.519Z,100793
2018-04-27T03:31:19.742Z,100781
2018-04-27T03:33:48.961Z,100779
2018-04-27T03:36:17.048Z,100791
2018-04-27T03:38:45.160Z,100783
2018-04-27T03:41:13.247Z,100775
2018-04-27T03:43:41.686Z,100766
2018-04-27T03:46:09.960Z,100769
2018-04-27T03:48:38.054Z,100774
2018-04-27T03:51:06.200Z,100770
2018-04-27T03:53:34.368Z,100765
2018-04-27T03:56:02.756Z,100767
2018-04-27T03:58:31.059Z,100753
2018-04-27T04:01:11.111Z,100757
2018-04-27T04:03:51.199Z,100759
2018-04-27T04:06:19.735Z,100747
2018-04-27T04:08:48.294Z,100758
2018-04-27T04:11:17.197Z,100755
2018-04-27T04:13:45.688Z,100749
2018-04-27T04:16:14.421Z,100762
2018-04-27T04:18:43.089Z,100756
2018-04-27T04:21:11.819Z,100755
2018-04-27T04:23:40.675Z,100761
2018-04-27T04:26:08.950Z,100768
2018-04-27T04:28:37.466Z,100768
2018-04-27T04:31:05.877Z,100762
2018-04-27T04:33:34.542Z,100768
2018-04-27T04:36:03.407Z,100756
2018-04-27T04:38:32.095Z,100766
2018-04-27T04:41:00.880Z,100771
2018-04-27T04:43:29.897Z,100760
2018-04-27T04:45:58.540Z,100763
2018-04-27T04:48:27.601Z,100765
2018-04-27T04:50:56.110Z,100768
2018-04-27T04:53:24.776Z,100767
2018-04-27T04:55:53.320Z,100762
2018-04-27T04:58:22.083Z,100766
2018-04-27T05:00:50.990Z,100762
2018-04-27T05:03:20.420Z,100764
2018-04-27T05:05:48.957Z,100773
2018-04-27T05:08:17.913Z,100761
2018-04-27T05:10:46.365Z,100771
2018-04-27T05:13:15.054Z,100775
2018-04-27T05:15:43.607Z,100767
2018-04-27T05:18:36.339Z,100775
2018-04-27T05:21:05.194Z,100772
2018-04-27T05:23:33.748Z,100779
2018-04-27T05:26:03.163Z,100783
2018-04-27T05:28:32.949Z,100788
2018-04-27T05:31:13.851Z,100783
2018-04-27T05:33:43.039Z,100791
2018-04-27T05:36:12.029Z,100790
2018-04-27T05:38:41.101Z,100784
2018-04-27T05:41:13.592Z,100793
2018-04-27T05:43:42.640Z,100791
2018-04-27T05:46:11.258Z,100794
2018-04-27T05:48:40.693Z,100799
2018-04-27T05:51:09.850Z,100789
2018-04-27T05:53:38.540Z,100771
2018-04-27T05:56:07.311Z,100781
2018-04-27T05:58:36.255Z,100783
2018-04-27T06:01:04.966Z,100792
2018-04-27T06:03:45.774Z,100773
2018-04-27T06:06:14.729Z,100773
2018-04-27T06:08:43.451Z,100772
2018-04-27T06:11:12.065Z,100780
2018-04-27T06:13:40.622Z,100787
2018-04-27T06:16:09.248Z,100775
2018-04-27T06:18:38.584Z,100781
2018-04-27T06:21:07.475Z,100784
2018-04-27T06:23:35.659Z,100775
2018-04-27T06:26:04.649Z,100781
2018-04-27T06:28:34.449Z,100782
2018-04-27T06:31:03.197Z,100772
2018-04-27T06:33:32.352Z,100774
2018-04-27T06:36:01.248Z,100773
2018-04-27T06:38:30.671Z,100762
2018-04-27T06:40:59.580Z,100761
2018-04-27T06:43:28.232Z,100754
2018-04-27T06:46:00.441Z,100753
2018-04-27T06:48:29.137Z,100751
2018-04-27T06:50:57.802Z,100746
2018-04-27T06:53:26.151Z,100747
2018-04-27T06:55:55.196Z,100748
2018-04-27T06:58:23.539Z,100743
2018-04-27T07:00:52.458Z,100754
2018-04-27T07:03:20.880Z,100750
2018-04-27T07:05:49.729Z,100740
2018-04-27T07:08:18.195Z,100735
2018-04-27T07:10:47.129Z,100739
2018-04-27T07:13:16.092Z,100728
2018-04-27T07:15:44.631Z,100726
2018-04-27T07:18:13.511Z,100720
2018-04-27T07:20:42.100Z,100724
2018-04-27T07:23:10.567Z,100720
2018-04-27T07:25:39.633Z,100708
2018-04-27T07:28:08.256Z,100706
2018-04-27T07:30:37.098Z,100703
2018-04-27T07:33:05.620Z,100708
2018-04-27T07:35:34.575Z,100704
2018-04-27T07:38:03.028Z,100702
2018-04-27T07:40:31.461Z,100696
2018-04-27T07:42:59.852Z,100691
2018-04-27T07:45:28.290Z,100691
2018-04-27T07:47:57.056Z,100692
2018-04-27T07:50:25.471Z,100692
2018-04-27T07:52:53.713Z,100693
2018-04-27T07:55:22.345Z,100694
2018-04-27T07:57:50.824Z,100689
2018-04-27T08:00:19.580Z,100685
2018-04-27T08:02:48.118Z,100681
2018-04-27T08:05:16.416Z,100687
2018-04-27T08:07:45.033Z,100686
2018-04-27T08:10:13.540Z,100681
2018-04-27T08:12:41.858Z,100688
2018-04-27T08:15:10.696Z,100683
2018-04-27T08:17:39.204Z,100685
2018-04-27T08:20:08.193Z,100690
2018-04-27T08:22:37.535Z,100684
2018-04-27T08:25:05.856Z,100684
2018-04-27T08:27:34.415Z,100681
2018-04-27T08:30:02.766Z,100678
2018-04-27T08:32:31.272Z,100682
2018-04-27T08:34:59.964Z,100669
2018-04-27T08:37:28.168Z,100680
2018-04-27T08:39:56.493Z,100681
2018-04-27T08:42:25.149Z,100678
2018-04-27T08:44:53.425Z,100687
2018-04-27T08:47:21.839Z,100669
2018-04-27T08:49:50.209Z,100678
2018-04-27T08:52:18.463Z,100677
2018-04-27T08:54:46.864Z,100674
2018-04-27T08:57:15.171Z,100673
2018-04-27T08:59:43.468Z,100685
2018-04-27T09:02:11.791Z,100665
2018-04-27T09:04:40.171Z,100668
2018-04-27T09:07:08.319Z,100664
2018-04-27T09:09:36.643Z,100661
2018-04-27T09:12:04.888Z,100682
2018-04-27T09:14:33.284Z,100655
2018-04-27T09:17:01.682Z,100657
2018-04-27T09:19:29.961Z,100659
2018-04-27T09:21:58.236Z,100662
2018-04-27T09:24:26.469Z,100671
2018-04-27T09:26:54.757Z,100651
2018-04-27T09:29:23.161Z,100650
2018-04-27T09:31:51.524Z,100646
2018-04-27T09:34:19.818Z,100652
2018-04-27T09:36:48.224Z,100638
2018-04-27T09:39:16.547Z,100633
2018-04-27T09:41:44.885Z,100639
2018-04-27T09:44:13.322Z,100648
2018-04-27T09:46:41.637Z,100636
2018-04-27T09:49:10.027Z,100633
2018-04-27T09:51:38.303Z,100627
2018-04-27T09:54:06.580Z,100634
2018-04-27T09:56:34.876Z,100640
2018-04-27T09:59:03.208Z,100630
2018-04-27T10:01:31.479Z,100616
2018-04-27T10:03:59.722Z,100620
2018-04-27T10:06:28.113Z,100615
2018-04-27T10:08:56.376Z,100612
2018-04-27T10:11:24.828Z,100604
2018-04-27T10:13:53.111Z,100604
2018-04-27T10:16:22.258Z,100607
2018-04-27T10:18:50.666Z,100593
2018-04-27T10:21:18.786Z,100591
2018-04-27T10:23:47.103Z,100577
2018-04-27T10:26:21.215Z,100578
2018-04-27T10:28:49.777Z,100579
2018-04-27T10:31:18.185Z,100572
2018-04-27T10:33:46.542Z,100578
2018-04-27T10:36:15.909Z,100575
2018-04-27T10:38:44.122Z,100569
2018-04-27T10:41:12.407Z,100569
2018-04-27T10:43:40.690Z,100563
2018-04-27T10:46:09.047Z,100558
2018-04-27T10:48:37.391Z,100562
2018-04-27T10:51:05.768Z,100547
2018-04-27T10:53:34.164Z,100547
2018-04-27T10:56:02.552Z,100544
2018-04-27T10:58:30.747Z,100548
2018-04-27T11:00:59.033Z,100545
2018-04-27T11:03:27.343Z,100548
2018-04-27T11:05:55.528Z,100531
2018-04-27T11:08:23.872Z,100541
2018-04-27T11:10:52.248Z,100530
2018-04-27T11:13:20.831Z,100524
2018-04-27T11:15:49.127Z,100521
2018-04-27T11:18:17.510Z,100517
2018-04-27T11:20:45.715Z,100520
2018-04-27T11:23:13.936Z,100523
2018-04-27T11:25:42.130Z,100512
2018-04-27T11:28:10.394Z,100510
2018-04-27T11:30:38.653Z,100502
2018-04-27T11:33:07.050Z,100501
2018-04-27T11:35:35.473Z,100499
2018-04-27T11:38:03.878Z,100505
2018-04-27T11:40:32.360Z,100498
2018-04-27T11:43:00.674Z,100493
2018-04-27T11:45:28.871Z,100511
2018-04-27T11:47:57.188Z,100494
2018-04-27T11:50:25.638Z,100507
2018-04-27T11:52:53.931Z,100507
2018-04-27T11:55:22.506Z,100495
2018-04-27T11:57:50.793Z,100500
2018-04-27T12:00:21.504Z,100497
2018-04-27T12:02:49.840Z,100490
2018-04-27T12:05:18.356Z,100491
2018-04-27T12:07:46.725Z,100491
2018-04-27T12:10:15.017Z,100482
2018-04-27T12:12:43.457Z,100489
2018-04-27T12:15:11.783Z,100479
2018-04-27T12:17:40.023Z,100468
2018-04-27T12:20:08.294Z,100472
2018-04-27T12:22:36.506Z,100476
2018-04-27T12:25:04.789Z,100466
2018-04-27T12:27:33.249Z,100470
2018-04-27T12:30:01.502Z,100463
2018-04-27T12:32:29.725Z,100472
2018-04-27T12:34:58.046Z,100460
2018-04-27T12:37:26.242Z,100452
2018-04-27T12:39:54.397Z,100450
2018-04-27T12:42:22.785Z,100451
2018-04-27T12:44:50.995Z,100456
2018-04-27T12:47:19.378Z,100448
2018-04-27T12:49:47.739Z,100458
2018-04-27T12:52:15.878Z,100450
2018-04-27T12:54:44.190Z,100451
2018-04-27T12:57:12.429Z,100442
2018-04-27T12:59:40.791Z,100441
2018-04-27T13:02:09.109Z,100443
2018-04-27T13:04:37.452Z,100450
2018-04-27T13:07:05.730Z,100443
2018-04-27T13:09:34.055Z,100423
2018-04-27T13:12:02.339Z,100429
2018-04-27T13:14:30.776Z,100411
2018-04-27T13:16:59.373Z,100421
2018-04-27T13:19:28.416Z,100413
2018-04-27T13:21:56.582Z,100423
2018-04-27T13:24:24.898Z,100423
2018-04-27T13:26:53.247Z,100415
2018-04-27T13:29:21.611Z,100410
2018-04-27T13:31:50.048Z,100409
2018-04-27T13:34:18.257Z,100406
2018-04-27T13:36:46.770Z,100394
2018-04-27T13:39:17.424Z,100394
2018-04-27T13:41:45.972Z,100397
2018-04-27T13:44:14.285Z,100391
2018-04-27T13:46:42.643Z,100398
2018-04-27T13:49:10.913Z,100380
2018-04-27T13:51:39.758Z,100372
2018-04-27T13:54:09.330Z,100367
2018-04-27T13:56:38.249Z,100363
2018-04-27T13:59:06.597Z,100367
2018-04-27T14:01:34.917Z,100359
2018-04-27T14:04:03.271Z,100354
2018-04-27T14:06:31.806Z,100347
2018-04-27T14:09:00.119Z,100344
2018-04-27T14:11:28.336Z,100340
2018-04-27T14:13:57.313Z,100323
2018-04-27T14:16:25.743Z,100320
2018-04-27T14:18:53.992Z,100311
2018-04-27T14:21:22.355Z,100309
2018-04-27T14:23:50.786Z,100314
2018-04-27T14:26:19.178Z,100307
2018-04-27T14:28:48.031Z,100311
2018-04-27T14:31:16.855Z,100300
2018-04-27T14:33:45.520Z,100298
2018-04-27T14:36:14.322Z,100297
2018-04-27T14:38:43.143Z,100309
2018-04-27T14:41:11.534Z,100300
2018-04-27T14:43:40.220Z,100293
2018-04-27T14:46:08.411Z,100293
2018-04-27T14:48:36.801Z,100289
2018-04-27T14:51:05.544Z,100290
2018-04-27T14:53:33.813Z,100281
2018-04-27T14:56:02.230Z,100271
2018-04-27T14:58:30.624Z,100283
2018-04-27T15:00:59.007Z,100288
2018-04-27T15:03:27.320Z,100288
2018-04-27T15:05:55.766Z,100285
2018-04-27T15:08:24.004Z,100283
2018-04-27T15:10:52.374Z,100281
2018-04-27T15:13:20.823Z,100278
2018-04-27T15:15:49.193Z,100273
2018-04-27T15:18:17.780Z,100271
2018-04-27T15:20:46.146Z,100277
2018-04-27T15:23:14.711Z,100273
2018-04-27T15:25:43.090Z,100281
2018-04-27T15:28:11.360Z,100278
2018-04-27T15:30:39.907Z,100277
2018-04-27T15:33:08.515Z,100274
2018-04-27T15:35:36.908Z,100271
2018-04-27T15:38:08.545Z,100271
2018-04-27T15:40:37.343Z,100260
2018-04-27T15:43:05.776Z,100265
2018-04-27T15:45:34.112Z,100255
2018-04-27T15:48:02.534Z,100251
2018-04-27T15:50:30.893Z,100256
2018-04-27T15:52:59.406Z,100257
2018-04-27T15:55:28.224Z,100254
2018-04-27T15:57:56.425Z,100251
2018-04-27T16:00:25.069Z,100235
2018-04-27T16:02:53.625Z,100245
2018-04-27T16:05:22.229Z,100236
2018-04-27T16:07:50.753Z,100234
2018-04-27T16:10:19.245Z,100220
2018-04-27T16:12:47.542Z,100221
2018-04-27T16:15:16.162Z,100226
2018-04-27T16:17:45.413Z,100216
2018-04-27T16:20:13.707Z,100214
2018-04-27T16:22:42.292Z,100204
2018-04-27T16:25:11.203Z,100206
2018-04-27T16:27:39.825Z,100204
2018-04-27T16:30:09.878Z,100204
2018-04-27T16:32:38.426Z,100202
2018-04-27T16:35:07.144Z,100213
2018-04-27T16:37:35.622Z,100202
2018-04-27T16:40:03.878Z,100200
2018-04-27T16:42:32.418Z,100203
2018-04-27T16:45:00.872Z,100202
2018-04-27T16:47:29.270Z,100205
2018-04-27T16:49:57.660Z,100204
2018-04-27T16:52:26.218Z,100206
2018-04-27T16:54:54.568Z,100207
2018-04-27T16:57:24.204Z,100194
2018-04-27T16:59:52.592Z,100193
2018-04-27T17:02:21.502Z,100186
2018-04-27T17:04:50.958Z,100190
2018-04-27T17:07:19.266Z,100188
2018-04-27T17:09:48.349Z,100200
2018-04-27T17:12:16.845Z,100189
2018-04-27T17:14:45.417Z,100189
2018-04-27T17:17:14.070Z,100192
2018-04-27T17:19:43.345Z,100193
2018-04-27T17:22:12.228Z,100197
2018-04-27T17:24:40.812Z,100200
2018-04-27T17:27:09.275Z,100196
2018-04-27T17:29:37.682Z,100198
2018-04-27T17:32:06.331Z,100197
2018-04-27T17:34:36.292Z,100198
2018-04-27T17:37:05.490Z,100201
2018-04-27T17:39:33.976Z,100205
2018-04-27T17:42:03.446Z,100193
2018-04-27T17:44:32.297Z,100199
2018-04-27T17:47:01.189Z,100191
2018-04-27T17:49:30.521Z,100203
2018-04-27T17:51:58.739Z,100212
2018-04-27T17:54:27.053Z,100218
2018-04-27T17:56:56.267Z,100217
2018-04-27T17:59:25.348Z,100216
2018-04-27T18:01:53.987Z,100220
2018-04-27T18:04:23.876Z,100203
2018-04-27T18:06:52.625Z,100212
2018-04-27T18:09:21.314Z,100219
2018-04-27T18:11:55.795Z,100213
2018-04-27T18:14:25.998Z,100213
2018-04-27T18:16:55.246Z,100217
2018-04-27T18:19:23.995Z,100207
2018-04-27T18:21:53.582Z,100209
2018-04-27T18:24:22.818Z,100210
2018-04-27T18:26:51.366Z,100213
2018-04-27T18:29:20.031Z,100206
2018-04-27T18:31:48.650Z,100210
2018-04-27T18:34:17.619Z,100217
2018-04-27T18:36:46.280Z,100217
2018-04-27T18:39:15.053Z,100218
2018-04-27T18:41:43.488Z,100223
2018-04-27T18:44:12.370Z,100220
2018-04-27T18:46:41.018Z,100218
2018-04-27T18:49:09.252Z,100209
2018-04-27T18:51:37.374Z,100202
2018-04-27T18:54:05.507Z,100205
2018-04-27T18:56:33.825Z,100196
2018-04-27T18:59:01.947Z,100211
2018-04-27T19:01:30.278Z,100203
2018-04-27T19:03:58.669Z,100191
2018-04-27T19:06:26.791Z,100182
2018-04-27T19:08:54.970Z,100197
2018-04-27T19:11:23.185Z,100191
2018-04-27T19:13:51.266Z,100192
2018-04-27T19:16:19.334Z,100178
2018-04-27T19:18:47.560Z,100191
2018-04-27T19:21:19.668Z,100188
2018-04-27T19:23:47.771Z,100188
2018-04-27T19:26:17.237Z,100187
2018-04-27T19:28:45.501Z,100189
2018-04-27T19:31:13.590Z,100195
2018-04-27T19:33:41.713Z,100197
2018-04-27T19:36:10.115Z,100194
2018-04-27T19:38:38.228Z,100194
2018-04-27T19:41:06.315Z,100192
2018-04-27T19:43:34.564Z,100191
2018-04-27T19:46:02.655Z,100194
2018-04-27T19:48:31.041Z,100194
2018-04-27T19:50:59.385Z,100195
2018-04-27T19:53:27.555Z,100197
2018-04-27T19:55:55.841Z,100190
2018-04-27T19:58:23.911Z,100187
2018-04-27T20:00:51.992Z,100182
2018-04-27T20:03:20.369Z,100188
2018-04-27T20:05:48.474Z,100179
2018-04-27T20:08:25.750Z,100184
2018-04-27T20:10:54.215Z,100183
2018-04-27T20:13:22.215Z,100186
2018-04-27T20:15:52.171Z,100181
2018-04-27T20:18:21.008Z,100191
2018-04-27T20:20:49.142Z,100177
2018-04-27T20:23:19.154Z,100185
2018-04-27T20:25:47.436Z,100191
2018-04-27T20:28:15.506Z,100182
2018-04-27T20:30:43.593Z,100184
2018-04-27T20:33:12.673Z,100181
2018-04-27T20:35:40.920Z,100187
2018-04-27T20:38:19.429Z,100172
2018-04-27T20:40:47.536Z,100178
2018-04-27T20:43:16.535Z,100179
2018-04-27T20:45:44.699Z,100171
2018-04-27T20:48:15.494Z,100172
2018-04-27T20:51:06.278Z,100174
2018-04-27T20:53:53.919Z,100179
2018-04-27T20:56:38.603Z,100168
2018-04-27T20:59:06.735Z,100164
2018-04-27T21:01:35.346Z,100170
2018-04-27T21:04:03.458Z,100170
2018-04-27T21:06:31.561Z,100164
2018-04-27T21:08:59.995Z,100171
2018-04-27T21:11:33.215Z,100168
2018-04-27T21:14:01.614Z,100171
2018-04-27T21:16:29.981Z,100166
2018-04-27T21:18:58.358Z,100164
2018-04-27T21:21:26.461Z,100161
2018-04-27T21:23:54.569Z,100164
2018-04-27T21:26:23.475Z,100154
2018-04-27T21:28:51.598Z,100160
2018-04-27T21:31:19.703Z,100156
2018-04-27T21:33:51.394Z,100153
2018-04-27T21:36:19.573Z,100159
2018-04-27T21:39:02.592Z,100150
2018-04-27T21:44:28.076Z,100139
2018-04-27T21:47:19.743Z,100144
2018-04-27T21:49:49.679Z,100135
2018-04-27T21:52:20.755Z,100138
2018-04-27T21:54:48.868Z,100141
2018-04-27T21:57:21.733Z,100143
2018-04-27T21:59:50.620Z,100132
2018-04-27T22:02:38.345Z,100125
2018-04-27T22:05:12.047Z,100123
2018-04-27T22:07:41.046Z,100130
2018-04-27T22:10:09.146Z,100118
2018-04-27T22:12:38.037Z,100139
2018-04-27T22:15:06.188Z,100131
2018-04-27T22:17:34.253Z,100130
2018-04-27T22:20:03.276Z,100121
2018-04-27T22:22:31.627Z,100123
2018-04-27T22:25:15.663Z,100130
2018-04-27T22:27:45.273Z,100123
2018-04-27T22:33:33.459Z,100121
2018-04-27T22:39:34.980Z,100118
2018-04-27T22:42:19.044Z,100110
2018-04-27T22:44:54.821Z,100104
2018-04-27T22:47:43.662Z,100101
2018-04-27T22:50:11.755Z,100105
2018-04-27T22:52:41.031Z,100103
2018-04-27T22:55:12.588Z,100102
2018-04-27T23:01:03.923Z,100110
2018-04-27T23:03:35.076Z,100106
2018-04-27T23:06:03.433Z,100092
2018-04-27T23:08:31.815Z,100088
2018-04-27T23:11:18.290Z,100092
2018-04-27T23:13:47.309Z,100086
2018-04-27T23:16:17.772Z,100084
2018-04-27T23:18:46.749Z,100085
2018-04-27T23:21:18.525Z,100076
2018-04-27T23:23:46.741Z,100074
2018-04-27T23:26:14.820Z,100058
2018-04-27T23:28:42.931Z,100060
2018-04-27T23:31:11.008Z,100061
2018-04-27T23:33:39.245Z,100060
2018-04-27T23:36:07.322Z,100063
2018-04-27T23:38:35.460Z,100059
2018-04-27T23:41:03.874Z,100061
2018-04-27T23:43:31.946Z,100060
2018-04-27T23:46:00.234Z,100059
2018-04-27T23:48:28.605Z,100065
2018-04-27T23:50:57.612Z,100059
2018-04-27T23:53:25.687Z,100054
2018-04-27T23:55:53.788Z,100045
2018-04-27T23:58:31.422Z,100043
